Terminal Aerodrome Forecast
Issued by NWS

Current Version | Previous Version | Text Only | Print | Product List | Glossary On
Versions: 1 2 3 4 5 6 7 8 9 10 11 12
000
FTUS43 KDVN 182300
TAFBRL
TAF
KBRL 182324Z 1900/1924 16011KT P6SM SCT070 BKN200
     FM191200 15005KT P6SM VCSH OVC060
      TEMPO 1915/1919 5SM SHRA BKN025
     FM191900 11005KT 5SM SHRA BKN025=

USA.gov is the U.S. government's official web portal to all federal, state and local government web resources and services.